sensor_id;sensor_type;location;lat;lon;timestamp;pressure;altitude;pressure_sealevel;temperature;humidity
54628;BME280;40525;55.926;21.066;2022-07-06T00:01:53;101707.50;;;18.15;63.38
54628;BME280;40525;55.926;21.066;2022-07-06T00:04:20;101697.79;;;18.14;63.51
54628;BME280;40525;55.926;21.066;2022-07-06T00:06:47;101697.39;;;18.13;63.79
54628;BME280;40525;55.926;21.066;2022-07-06T00:09:14;101698.55;;;18.16;64.20
54628;BME280;40525;55.926;21.066;2022-07-06T00:11:41;101696.64;;;18.18;64.33
54628;BME280;40525;55.926;21.066;2022-07-06T00:14:07;101694.34;;;18.19;64.25
54628;BME280;40525;55.926;21.066;2022-07-06T00:16:34;101700.83;;;18.22;64.21
54628;BME280;40525;55.926;21.066;2022-07-06T00:19:01;101697.22;;;18.23;64.06
54628;BME280;40525;55.926;21.066;2022-07-06T00:21:27;101687.87;;;18.23;64.29
54628;BME280;40525;55.926;21.066;2022-07-06T00:23:54;101696.83;;;18.22;64.37
54628;BME280;40525;55.926;21.066;2022-07-06T00:26:21;101705.80;;;18.21;64.62
54628;BME280;40525;55.926;21.066;2022-07-06T00:28:48;101693.22;;;18.23;64.74
54628;BME280;40525;55.926;21.066;2022-07-06T00:31:14;101691.31;;;18.25;64.45
54628;BME280;40525;55.926;21.066;2022-07-06T00:33:41;101688.16;;;18.26;64.19
54628;BME280;40525;55.926;21.066;2022-07-06T00:36:08;101698.34;;;18.26;63.90
54628;BME280;40525;55.926;21.066;2022-07-06T00:38:34;101686.91;;;18.24;63.68
54628;BME280;40525;55.926;21.066;2022-07-06T00:41:02;101686.42;;;18.25;63.52
54628;BME280;40525;55.926;21.066;2022-07-06T00:43:50;101684.99;;;18.19;63.23
54628;BME280;40525;55.926;21.066;2022-07-06T00:46:17;101685.20;;;18.16;63.25
54628;BME280;40525;55.926;21.066;2022-07-06T00:48:44;101696.91;;;18.13;63.66
54628;BME280;40525;55.926;21.066;2022-07-06T00:51:12;101682.34;;;18.12;63.90
54628;BME280;40525;55.926;21.066;2022-07-06T00:53:40;101686.14;;;18.15;64.07
54628;BME280;40525;55.926;21.066;2022-07-06T00:56:07;101677.19;;;18.16;63.82
54628;BME280;40525;55.926;21.066;2022-07-06T00:58:33;101669.55;;;18.17;63.55
54628;BME280;40525;55.926;21.066;2022-07-06T01:01:00;101671.85;;;18.16;63.48
54628;BME280;40525;55.926;21.066;2022-07-06T01:03:27;101667.36;;;18.17;63.30
54628;BME280;40525;55.926;21.066;2022-07-06T01:05:53;101664.69;;;18.17;63.05
54628;BME280;40525;55.926;21.066;2022-07-06T01:08:20;101663.36;;;18.17;62.98
54628;BME280;40525;55.926;21.066;2022-07-06T01:10:48;101655.84;;;18.16;63.06
54628;BME280;40525;55.926;21.066;2022-07-06T01:13:15;101655.84;;;18.16;63.09
54628;BME280;40525;55.926;21.066;2022-07-06T01:15:41;101658.02;;;18.17;63.35
54628;BME280;40525;55.926;21.066;2022-07-06T01:18:10;101656.95;;;18.19;63.18
54628;BME280;40525;55.926;21.066;2022-07-06T01:20:38;101647.16;;;18.20;63.02
54628;BME280;40525;55.926;21.066;2022-07-06T01:23:04;101653.92;;;18.18;62.65
54628;BME280;40525;55.926;21.066;2022-07-06T01:25:31;101659.35;;;18.17;62.51
54628;BME280;40525;55.926;21.066;2022-07-06T01:27:58;101662.59;;;18.14;62.54
54628;BME280;40525;55.926;21.066;2022-07-06T01:30:25;101653.73;;;18.14;62.50
54628;BME280;40525;55.926;21.066;2022-07-06T01:32:51;101651.73;;;18.10;62.45
54628;BME280;40525;55.926;21.066;2022-07-06T01:35:18;101648.77;;;18.08;62.46
54628;BME280;40525;55.926;21.066;2022-07-06T01:37:45;101652.41;;;18.07;62.77
54628;BME280;40525;55.926;21.066;2022-07-06T01:40:13;101652.48;;;18.05;63.06
54628;BME280;40525;55.926;21.066;2022-07-06T01:42:40;101653.46;;;18.04;63.42
54628;BME280;40525;55.926;21.066;2022-07-06T01:45:08;101652.89;;;18.06;63.58
54628;BME280;40525;55.926;21.066;2022-07-06T01:47:38;101650.09;;;18.08;63.57
54628;BME280;40525;55.926;21.066;2022-07-06T01:50:07;101651.43;;;18.08;63.41
54628;BME280;40525;55.926;21.066;2022-07-06T01:52:36;101645.64;;;18.08;63.35
54628;BME280;40525;55.926;21.066;2022-07-06T01:55:03;101656.31;;;18.08;63.36
54628;BME280;40525;55.926;21.066;2022-07-06T01:57:31;101655.64;;;18.05;63.79
54628;BME280;40525;55.926;21.066;2022-07-06T01:59:58;101650.30;;;18.05;63.53
54628;BME280;40525;55.926;21.066;2022-07-06T02:02:25;101653.06;;;18.03;63.58
54628;BME280;40525;55.926;21.066;2022-07-06T02:04:51;101654.13;;;18.01;63.79
54628;BME280;40525;55.926;21.066;2022-07-06T02:07:18;101654.13;;;18.01;63.92
54628;BME280;40525;55.926;21.066;2022-07-06T02:09:45;101660.22;;;18.03;64.22
54628;BME280;40525;55.926;21.066;2022-07-06T02:12:11;101662.32;;;18.05;64.16
54628;BME280;40525;55.926;21.066;2022-07-06T02:14:38;101656.01;;;18.06;64.07
54628;BME280;40525;55.926;21.066;2022-07-06T02:17:05;101656.77;;;18.08;64.02
54628;BME280;40525;55.926;21.066;2022-07-06T02:19:33;101655.44;;;18.08;63.89
54628;BME280;40525;55.926;21.066;2022-07-06T02:22:00;101650.67;;;18.06;63.87
54628;BME280;40525;55.926;21.066;2022-07-06T02:24:28;101650.22;;;18.06;63.92
54628;BME280;40525;55.926;21.066;2022-07-06T02:26:55;101655.64;;;18.05;63.96
54628;BME280;40525;55.926;21.066;2022-07-06T02:29:23;101654.67;;;18.06;64.19
54628;BME280;40525;55.926;21.066;2022-07-06T02:31:49;101655.92;;;18.07;64.56
54628;BME280;40525;55.926;21.066;2022-07-06T02:34:16;101654.49;;;18.09;64.23
54628;BME280;40525;55.926;21.066;2022-07-06T02:36:42;101654.89;;;18.10;64.05
54628;BME280;40525;55.926;21.066;2022-07-06T02:39:09;101649.06;;;18.10;64.06
54628;BME280;40525;55.926;21.066;2022-07-06T02:41:36;101652.41;;;18.14;63.81
54628;BME280;40525;55.926;21.066;2022-07-06T02:44:03;101648.31;;;18.16;63.54
54628;BME280;40525;55.926;21.066;2022-07-06T02:46:30;101647.43;;;18.15;63.38
54628;BME280;40525;55.926;21.066;2022-07-06T02:48:57;101645.16;;;18.16;63.36
54628;BME280;40525;55.926;21.066;2022-07-06T02:51:23;101642.48;;;18.16;63.33
54628;BME280;40525;55.926;21.066;2022-07-06T02:53:50;101644.19;;;18.17;63.52
54628;BME280;40525;55.926;21.066;2022-07-06T02:56:17;101640.00;;;18.20;63.77
54628;BME280;40525;55.926;21.066;2022-07-06T02:58:44;101638.09;;;18.22;63.69
54628;BME280;40525;55.926;21.066;2022-07-06T03:01:12;101641.24;;;18.29;63.52
54628;BME280;40525;55.926;21.066;2022-07-06T03:03:38;101644.37;;;18.28;63.33
54628;BME280;40525;55.926;21.066;2022-07-06T03:06:06;101648.77;;;18.29;63.42
54628;BME280;40525;55.926;21.066;2022-07-06T03:08:33;101643.42;;;18.29;63.44
54628;BME280;40525;55.926;21.066;2022-07-06T03:11:00;101636.75;;;18.29;63.57
54628;BME280;40525;55.926;21.066;2022-07-06T03:13:27;101637.11;;;18.30;63.58
54628;BME280;40525;55.926;21.066;2022-07-06T03:15:55;101643.42;;;18.29;63.79
54628;BME280;40525;55.926;21.066;2022-07-06T03:18:22;101644.00;;;18.34;63.80
54628;BME280;40525;55.926;21.066;2022-07-06T03:20:50;101641.20;;;18.36;63.54
54628;BME280;40525;55.926;21.066;2022-07-06T03:23:17;101644.18;;;18.39;63.28
54628;BME280;40525;55.926;21.066;2022-07-06T03:25:44;101640.93;;;18.41;63.04
54628;BME280;40525;55.926;21.066;2022-07-06T03:28:11;101636.34;;;18.43;62.98
54628;BME280;40525;55.926;21.066;2022-07-06T03:30:37;101629.19;;;18.43;62.88
54628;BME280;40525;55.926;21.066;2022-07-06T03:33:04;101622.14;;;18.42;62.88
54628;BME280;40525;55.926;21.066;2022-07-06T03:35:31;101621.17;;;18.43;62.97
54628;BME280;40525;55.926;21.066;2022-07-06T03:37:59;101622.02;;;18.44;63.13
54628;BME280;40525;55.926;21.066;2022-07-06T03:40:28;101623.36;;;18.44;63.23
54628;BME280;40525;55.926;21.066;2022-07-06T03:42:54;101619.16;;;18.47;63.42
54628;BME280;40525;55.926;21.066;2022-07-06T03:45:21;101614.97;;;18.50;63.61
54628;BME280;40525;55.926;21.066;2022-07-06T03:47:48;101617.91;;;18.52;63.33
54628;BME280;40525;55.926;21.066;2022-07-06T03:50:15;101620.09;;;18.53;63.16
54628;BME280;40525;55.926;21.066;2022-07-06T03:52:41;101629.34;;;18.54;63.06
54628;BME280;40525;55.926;21.066;2022-07-06T03:55:09;101619.16;;;18.54;62.86
54628;BME280;40525;55.926;21.066;2022-07-06T03:57:38;101622.19;;;18.55;62.44
54628;BME280;40525;55.926;21.066;2022-07-06T04:00:09;101607.13;;;18.54;62.53
54628;BME280;40525;55.926;21.066;2022-07-06T04:02:43;101610.46;;;18.58;62.51
54628;BME280;40525;55.926;21.066;2022-07-06T04:05:12;101607.89;;;18.56;62.60
54628;BME280;40525;55.926;21.066;2022-07-06T04:07:39;101606.91;;;18.57;62.67
54628;BME280;40525;55.926;21.066;2022-07-06T04:10:07;101605.48;;;18.59;62.63
54628;BME280;40525;55.926;21.066;2022-07-06T04:12:39;101613.05;;;18.59;62.74
54628;BME280;40525;55.926;21.066;2022-07-06T04:15:08;101605.78;;;18.61;63.09
54628;BME280;40525;55.926;21.066;2022-07-06T04:17:35;101614.33;;;18.66;63.05
54628;BME280;40525;55.926;21.066;2022-07-06T04:20:27;101617.75;;;18.68;62.79
54628;BME280;40525;55.926;21.066;2022-07-06T04:22:55;101608.05;;;18.67;62.58
54628;BME280;40525;55.926;21.066;2022-07-06T04:25:22;101603.84;;;18.70;62.48
54628;BME280;40525;55.926;21.066;2022-07-06T04:27:49;101602.38;;;18.72;62.49
54628;BME280;40525;55.926;21.066;2022-07-06T04:30:15;101602.68;;;18.75;62.48
54628;BME280;40525;55.926;21.066;2022-07-06T04:32:43;101608.69;;;18.78;62.37
54628;BME280;40525;55.926;21.066;2022-07-06T04:35:10;101604.97;;;18.81;62.32
54628;BME280;40525;55.926;21.066;2022-07-06T04:37:38;101600.53;;;18.80;62.00
54628;BME280;40525;55.926;21.066;2022-07-06T04:40:06;101600.53;;;18.80;61.88
54628;BME280;40525;55.926;21.066;2022-07-06T04:42:33;101604.48;;;18.81;61.81
54628;BME280;40525;55.926;21.066;2022-07-06T04:45:00;101599.98;;;18.82;61.84
54628;BME280;40525;55.926;21.066;2022-07-06T04:47:27;101598.55;;;18.83;61.96
54628;BME280;40525;55.926;21.066;2022-07-06T04:49:53;101605.53;;;18.86;62.32
54628;BME280;40525;55.926;21.066;2022-07-06T04:52:20;101603.20;;;18.94;62.62
54628;BME280;40525;55.926;21.066;2022-07-06T04:54:48;101605.45;;;19.00;62.38
54628;BME280;40525;55.926;21.066;2022-07-06T04:57:15;101601.61;;;19.04;62.11
54628;BME280;40525;55.926;21.066;2022-07-06T04:59:41;101603.14;;;19.08;62.12
54628;BME280;40525;55.926;21.066;2022-07-06T05:02:08;101600.05;;;19.15;62.08
54628;BME280;40525;55.926;21.066;2022-07-06T05:04:35;101601.16;;;19.18;61.97
54628;BME280;40525;55.926;21.066;2022-07-06T05:07:01;101601.55;;;19.19;62.29
54628;BME280;40525;55.926;21.066;2022-07-06T05:09:28;101596.78;;;19.17;62.60
54628;BME280;40525;55.926;21.066;2022-07-06T05:11:56;101598.70;;;19.15;63.39
54628;BME280;40525;55.926;21.066;2022-07-06T05:14:24;101591.05;;;19.16;63.78
54628;BME280;40525;55.926;21.066;2022-07-06T05:16:52;101588.44;;;19.21;64.23
54628;BME280;40525;55.926;21.066;2022-07-06T05:19:19;101596.75;;;19.24;64.07
54628;BME280;40525;55.926;21.066;2022-07-06T05:21:47;101589.67;;;19.23;63.83
54628;BME280;40525;55.926;21.066;2022-07-06T05:24:14;101587.91;;;19.29;63.73
54628;BME280;40525;55.926;21.066;2022-07-06T05:26:42;101580.63;;;19.31;63.38
54628;BME280;40525;55.926;21.066;2022-07-06T05:29:09;101582.56;;;19.29;63.18
54628;BME280;40525;55.926;21.066;2022-07-06T05:31:36;101580.11;;;19.26;63.08
54628;BME280;40525;55.926;21.066;2022-07-06T05:34:03;101575.02;;;19.28;62.94
54628;BME280;40525;55.926;21.066;2022-07-06T05:36:30;101575.41;;;19.29;62.69
54628;BME280;40525;55.926;21.066;2022-07-06T05:38:58;101570.22;;;19.34;62.21
54628;BME280;40525;55.926;21.066;2022-07-06T05:41:26;101567.65;;;19.32;62.04
54628;BME280;40525;55.926;21.066;2022-07-06T05:43:52;101574.14;;;19.35;62.58
54628;BME280;40525;55.926;21.066;2022-07-06T05:46:19;101571.62;;;19.39;63.06
54628;BME280;40525;55.926;21.066;2022-07-06T05:48:45;101557.27;;;19.40;63.03
54628;BME280;40525;55.926;21.066;2022-07-06T05:51:31;101563.16;;;19.45;62.76
54628;BME280;40525;55.926;21.066;2022-07-06T05:53:58;101561.33;;;19.46;62.24
54628;BME280;40525;55.926;21.066;2022-07-06T05:56:25;101560.48;;;19.45;61.74
54628;BME280;40525;55.926;21.066;2022-07-06T05:58:52;101561.66;;;19.41;61.21
54628;BME280;40525;55.926;21.066;2022-07-06T06:01:18;101558.99;;;19.41;60.81
54628;BME280;40525;55.926;21.066;2022-07-06T06:03:48;101555.56;;;19.39;60.53
54628;BME280;40525;55.926;21.066;2022-07-06T06:06:14;101549.98;;;19.42;60.81
54628;BME280;40525;55.926;21.066;2022-07-06T06:08:41;101552.41;;;19.53;60.99
54628;BME280;40525;55.926;21.066;2022-07-06T06:11:08;101544.89;;;19.58;61.03
54628;BME280;40525;55.926;21.066;2022-07-06T06:13:34;101538.64;;;19.64;61.15
54628;BME280;40525;55.926;21.066;2022-07-06T06:16:01;101543.38;;;19.74;61.45
54628;BME280;40525;55.926;21.066;2022-07-06T06:18:28;101547.20;;;19.82;61.34
54628;BME280;40525;55.926;21.066;2022-07-06T06:20:55;101548.13;;;19.88;61.49
54628;BME280;40525;55.926;21.066;2022-07-06T06:23:21;101540.38;;;19.97;61.37
54628;BME280;40525;55.926;21.066;2022-07-06T06:25:48;101528.63;;;20.05;61.21
54628;BME280;40525;55.926;21.066;2022-07-06T06:28:14;101538.20;;;20.15;60.75
54628;BME280;40525;55.926;21.066;2022-07-06T06:30:41;101533.10;;;20.17;60.73
54628;BME280;40525;55.926;21.066;2022-07-06T06:33:12;101524.00;;;20.25;60.56
54628;BME280;40525;55.926;21.066;2022-07-06T06:35:46;101529.05;;;20.30;60.40
54628;BME280;40525;55.926;21.066;2022-07-06T06:38:14;101527.42;;;20.27;60.35
54628;BME280;40525;55.926;21.066;2022-07-06T06:40:41;101527.81;;;20.28;60.34
54628;BME280;40525;55.926;21.066;2022-07-06T06:43:07;101524.31;;;20.34;60.10
54628;BME280;40525;55.926;21.066;2022-07-06T06:45:36;101528.09;;;20.37;60.04
54628;BME280;40525;55.926;21.066;2022-07-06T06:48:03;101527.98;;;20.38;59.91
54628;BME280;40525;55.926;21.066;2022-07-06T06:50:30;101534.27;;;20.32;59.49
54628;BME280;40525;55.926;21.066;2022-07-06T06:52:57;101541.17;;;20.23;59.14
54628;BME280;40525;55.926;21.066;2022-07-06T06:55:23;101541.38;;;20.20;59.12
54628;BME280;40525;55.926;21.066;2022-07-06T06:57:50;101541.87;;;20.19;59.24
54628;BME280;40525;55.926;21.066;2022-07-06T07:00:16;101536.30;;;20.22;59.22
54628;BME280;40525;55.926;21.066;2022-07-06T07:02:44;101539.45;;;20.22;58.90
54628;BME280;40525;55.926;21.066;2022-07-06T07:05:13;101535.07;;;20.21;59.02
54628;BME280;40525;55.926;21.066;2022-07-06T07:07:39;101536.13;;;20.18;59.17
54628;BME280;40525;55.926;21.066;2022-07-06T07:10:07;101536.73;;;20.16;59.20
54628;BME280;40525;55.926;21.066;2022-07-06T07:12:34;101551.98;;;20.21;59.19
54628;BME280;40525;55.926;21.066;2022-07-06T07:15:01;101552.37;;;20.22;59.11
54628;BME280;40525;55.926;21.066;2022-07-06T07:17:28;101550.65;;;20.21;59.17
54628;BME280;40525;55.926;21.066;2022-07-06T07:19:54;101550.41;;;20.19;58.96
54628;BME280;40525;55.926;21.066;2022-07-06T07:22:23;101553.22;;;20.23;58.86
54628;BME280;40525;55.926;21.066;2022-07-06T07:24:50;101552.27;;;20.29;58.53
54628;BME280;40525;55.926;21.066;2022-07-06T07:27:17;101550.53;;;20.41;58.51
54628;BME280;40525;55.926;21.066;2022-07-06T07:29:43;101546.06;;;20.47;58.37
54628;BME280;40525;55.926;21.066;2022-07-06T07:32:10;101553.98;;;20.49;58.25
54628;BME280;40525;55.926;21.066;2022-07-06T07:34:39;101558.61;;;20.47;58.23
54628;BME280;40525;55.926;21.066;2022-07-06T07:37:06;101556.53;;;20.51;58.23
54628;BME280;40525;55.926;21.066;2022-07-06T07:39:32;101561.67;;;20.54;58.11
54628;BME280;40525;55.926;21.066;2022-07-06T07:41:59;101542.59;;;20.58;57.60
54628;BME280;40525;55.926;21.066;2022-07-06T07:44:25;101544.58;;;20.67;57.78
54628;BME280;40525;55.926;21.066;2022-07-06T07:46:53;101547.80;;;20.78;57.50
54628;BME280;40525;55.926;21.066;2022-07-06T07:49:19;101547.33;;;20.84;57.36
54628;BME280;40525;55.926;21.066;2022-07-06T07:51:48;101551.46;;;20.83;56.85
54628;BME280;40525;55.926;21.066;2022-07-06T07:54:15;101557.74;;;20.95;56.71
54628;BME280;40525;55.926;21.066;2022-07-06T07:56:41;101563.82;;;20.91;56.63
54628;BME280;40525;55.926;21.066;2022-07-06T07:59:08;101570.03;;;20.92;56.80
54628;BME280;40525;55.926;21.066;2022-07-06T08:01:36;101565.90;;;20.93;56.84
54628;BME280;40525;55.926;21.066;2022-07-06T08:04:03;101559.69;;;20.93;56.78
54628;BME280;40525;55.926;21.066;2022-07-06T08:06:30;101562.23;;;20.94;56.70
54628;BME280;40525;55.926;21.066;2022-07-06T08:08:56;101571.75;;;20.93;56.58
54628;BME280;40525;55.926;21.066;2022-07-06T08:11:23;101571.22;;;20.82;56.20
54628;BME280;40525;55.926;21.066;2022-07-06T08:13:49;101569.47;;;20.75;55.94
54628;BME280;40525;55.926;21.066;2022-07-06T08:16:16;101568.48;;;20.71;56.32
54628;BME280;40525;55.926;21.066;2022-07-06T08:18:43;101570.30;;;20.64;55.28
54628;BME280;40525;55.926;21.066;2022-07-06T08:21:10;101570.30;;;20.64;55.59
54628;BME280;40525;55.926;21.066;2022-07-06T08:23:40;101563.81;;;20.61;55.71
54628;BME280;40525;55.926;21.066;2022-07-06T08:26:07;101583.14;;;20.59;55.53
54628;BME280;40525;55.926;21.066;2022-07-06T08:28:33;101566.41;;;20.69;55.59
54628;BME280;40525;55.926;21.066;2022-07-06T08:31:00;101564.86;;;20.83;55.58
54628;BME280;40525;55.926;21.066;2022-07-06T08:33:27;101560.42;;;20.95;55.53
54628;BME280;40525;55.926;21.066;2022-07-06T08:35:53;101557.91;;;21.10;55.37
54628;BME280;40525;55.926;21.066;2022-07-06T08:38:20;101551.45;;;21.18;55.26
54628;BME280;40525;55.926;21.066;2022-07-06T08:40:49;101557.92;;;21.16;55.16
54628;BME280;40525;55.926;21.066;2022-07-06T08:43:16;101554.97;;;21.13;55.16
54628;BME280;40525;55.926;21.066;2022-07-06T08:45:45;101559.77;;;21.21;55.12
54628;BME280;40525;55.926;21.066;2022-07-06T08:48:12;101558.42;;;21.32;55.01
54628;BME280;40525;55.926;21.066;2022-07-06T08:50:39;101559.36;;;21.50;55.04
54628;BME280;40525;55.926;21.066;2022-07-06T08:53:06;101570.94;;;21.50;54.95
54628;BME280;40525;55.926;21.066;2022-07-06T08:55:33;101561.73;;;21.41;54.86
54628;BME280;40525;55.926;21.066;2022-07-06T08:58:01;101565.13;;;21.32;55.14
54628;BME280;40525;55.926;21.066;2022-07-06T09:00:28;101564.24;;;21.15;55.19
54628;BME280;40525;55.926;21.066;2022-07-06T09:02:55;101567.02;;;20.96;55.13
54628;BME280;40525;55.926;21.066;2022-07-06T09:07:58;101560.41;;;20.89;55.55
54628;BME280;40525;55.926;21.066;2022-07-06T09:10:25;101557.74;;;20.95;55.64
54628;BME280;40525;55.926;21.066;2022-07-06T09:12:52;101562.65;;;21.06;54.84
54628;BME280;40525;55.926;21.066;2022-07-06T09:15:23;101561.09;;;21.15;54.84
54628;BME280;40525;55.926;21.066;2022-07-06T09:20:16;101563.69;;;21.39;54.20
54628;BME280;40525;55.926;21.066;2022-07-06T09:22:42;101563.50;;;21.48;53.81
54628;BME280;40525;55.926;21.066;2022-07-06T09:25:11;101561.17;;;21.55;53.22
54628;BME280;40525;55.926;21.066;2022-07-06T09:27:40;101560.94;;;21.58;53.08
54628;BME280;40525;55.926;21.066;2022-07-06T09:30:16;101561.06;;;21.62;53.12
54628;BME280;40525;55.926;21.066;2022-07-06T09:32:46;101559.49;;;21.71;52.22
54628;BME280;40525;55.926;21.066;2022-07-06T09:35:28;101560.11;;;21.74;52.22
54628;BME280;40525;55.926;21.066;2022-07-06T09:38:10;101559.84;;;21.83;51.83
54628;BME280;40525;55.926;21.066;2022-07-06T09:40:40;101566.81;;;21.91;51.48
54628;BME280;40525;55.926;21.066;2022-07-06T09:43:11;101571.69;;;21.97;51.29
54628;BME280;40525;55.926;21.066;2022-07-06T09:45:40;101562.16;;;22.05;51.22
54628;BME280;40525;55.926;21.066;2022-07-06T09:48:16;101558.96;;;22.16;50.88
54628;BME280;40525;55.926;21.066;2022-07-06T09:50:52;101557.84;;;22.19;50.50
54628;BME280;40525;55.926;21.066;2022-07-06T09:53:24;101560.52;;;22.25;50.33
54628;BME280;40525;55.926;21.066;2022-07-06T09:55:56;101565.19;;;22.28;50.23
54628;BME280;40525;55.926;21.066;2022-07-06T09:58:27;101568.11;;;22.31;49.94
54628;BME280;40525;55.926;21.066;2022-07-06T10:00:54;101564.97;;;22.26;49.30
54628;BME280;40525;55.926;21.066;2022-07-06T10:03:21;101566.31;;;22.26;49.20
54628;BME280;40525;55.926;21.066;2022-07-06T10:05:48;101568.83;;;22.33;49.15
54628;BME280;40525;55.926;21.066;2022-07-06T10:08:16;101566.64;;;22.32;48.80
54628;BME280;40525;55.926;21.066;2022-07-06T10:10:44;101565.16;;;22.45;48.95
54628;BME280;40525;55.926;21.066;2022-07-06T10:13:11;101572.06;;;22.59;48.93
54628;BME280;40525;55.926;21.066;2022-07-06T10:15:39;101566.32;;;22.64;48.44
54628;BME280;40525;55.926;21.066;2022-07-06T10:18:08;101568.73;;;22.67;48.42
54628;BME280;40525;55.926;21.066;2022-07-06T10:20:38;101587.80;;;22.75;48.35
54628;BME280;40525;55.926;21.066;2022-07-06T10:23:06;101581.30;;;22.77;48.33
54628;BME280;40525;55.926;21.066;2022-07-06T10:25:34;101579.55;;;22.82;48.11
54628;BME280;40525;55.926;21.066;2022-07-06T10:28:02;101579.78;;;22.90;47.69
54628;BME280;40525;55.926;21.066;2022-07-06T10:30:30;101575.22;;;22.96;47.77
54628;BME280;40525;55.926;21.066;2022-07-06T10:32:58;101586.58;;;23.06;47.08
54628;BME280;40525;55.926;21.066;2022-07-06T10:35:26;101584.98;;;23.09;47.42
54628;BME280;40525;55.926;21.066;2022-07-06T10:38:06;101579.33;;;23.12;47.46
54628;BME280;40525;55.926;21.066;2022-07-06T10:40:35;101571.44;;;23.20;47.22
54628;BME280;40525;55.926;21.066;2022-07-06T10:43:22;101577.88;;;23.29;47.17
54628;BME280;40525;55.926;21.066;2022-07-06T10:45:51;101576.41;;;23.30;47.45
54628;BME280;40525;55.926;21.066;2022-07-06T10:48:19;101568.17;;;23.37;47.07
54628;BME280;40525;55.926;21.066;2022-07-06T10:50:52;101554.52;;;23.45;47.29
54628;BME280;40525;55.926;21.066;2022-07-06T10:53:27;101551.44;;;23.49;46.81
54628;BME280;40525;55.926;21.066;2022-07-06T10:55:56;101560.36;;;23.50;46.62
54628;BME280;40525;55.926;21.066;2022-07-06T10:58:36;101555.64;;;23.42;46.78
54628;BME280;40525;55.926;21.066;2022-07-06T11:01:08;101562.00;;;23.47;47.09
54628;BME280;40525;55.926;21.066;2022-07-06T11:06:24;101551.56;;;23.63;45.94
54628;BME280;40525;55.926;21.066;2022-07-06T11:09:00;101553.38;;;23.68;45.60
54628;BME280;40525;55.926;21.066;2022-07-06T11:14:11;101557.14;;;24.02;46.22
54628;BME280;40525;55.926;21.066;2022-07-06T11:19:25;101559.66;;;24.09;45.12
54628;BME280;40525;55.926;21.066;2022-07-06T11:21:55;101555.09;;;24.00;45.75
54628;BME280;40525;55.926;21.066;2022-07-06T11:24:29;101554.56;;;24.26;45.56
54628;BME280;40525;55.926;21.066;2022-07-06T11:26:58;101550.34;;;24.43;44.77
54628;BME280;40525;55.926;21.066;2022-07-06T11:29:27;101546.49;;;24.61;44.80
54628;BME280;40525;55.926;21.066;2022-07-06T11:31:59;101542.21;;;24.68;43.33
54628;BME280;40525;55.926;21.066;2022-07-06T11:34:28;101549.19;;;24.70;43.75
54628;BME280;40525;55.926;21.066;2022-07-06T11:37:04;101549.45;;;24.77;43.03
54628;BME280;40525;55.926;21.066;2022-07-06T11:39:35;101546.56;;;24.65;42.94
54628;BME280;40525;55.926;21.066;2022-07-06T11:42:06;101545.62;;;24.60;43.67
54628;BME280;40525;55.926;21.066;2022-07-06T11:44:34;101541.87;;;24.77;43.83
54628;BME280;40525;55.926;21.066;2022-07-06T11:47:03;101531.14;;;24.81;43.89
54628;BME280;40525;55.926;21.066;2022-07-06T11:49:31;101532.74;;;25.07;43.74
54628;BME280;40525;55.926;21.066;2022-07-06T11:51:58;101536.83;;;25.21;42.66
54628;BME280;40525;55.926;21.066;2022-07-06T11:54:26;101544.17;;;25.24;43.24
54628;BME280;40525;55.926;21.066;2022-07-06T11:56:57;101538.49;;;25.27;43.19
54628;BME280;40525;55.926;21.066;2022-07-06T11:59:30;101538.17;;;25.30;42.19
54628;BME280;40525;55.926;21.066;2022-07-06T12:04:37;101534.55;;;25.36;41.88
54628;BME280;40525;55.926;21.066;2022-07-06T12:07:12;101545.41;;;25.40;41.64
54628;BME280;40525;55.926;21.066;2022-07-06T12:09:39;101540.94;;;25.58;40.49
54628;BME280;40525;55.926;21.066;2022-07-06T12:12:07;101549.14;;;25.66;38.77
54628;BME280;40525;55.926;21.066;2022-07-06T12:14:36;101559.62;;;25.65;39.41
54628;BME280;40525;55.926;21.066;2022-07-06T12:17:09;101549.09;;;25.62;39.15
54628;BME280;40525;55.926;21.066;2022-07-06T12:19:38;101549.75;;;25.60;39.81
54628;BME280;40525;55.926;21.066;2022-07-06T12:22:05;101548.06;;;25.87;39.83
54628;BME280;40525;55.926;21.066;2022-07-06T12:24:34;101543.53;;;26.15;39.75
54628;BME280;40525;55.926;21.066;2022-07-06T12:27:18;101550.73;;;26.42;39.94
54628;BME280;40525;55.926;21.066;2022-07-06T12:29:47;101551.09;;;26.43;39.05
54628;BME280;40525;55.926;21.066;2022-07-06T12:32:20;101549.89;;;26.24;38.37
54628;BME280;40525;55.926;21.066;2022-07-06T12:35:07;101553.05;;;26.05;38.95
54628;BME280;40525;55.926;21.066;2022-07-06T12:37:32;101551.83;;;26.18;39.74
54628;BME280;40525;55.926;21.066;2022-07-06T12:39:59;101553.66;;;25.89;39.60
54628;BME280;40525;55.926;21.066;2022-07-06T12:42:26;101555.98;;;25.47;40.21
54628;BME280;40525;55.926;21.066;2022-07-06T12:44:54;101551.30;;;24.86;41.47
54628;BME280;40525;55.926;21.066;2022-07-06T12:47:23;101560.48;;;24.45;42.71
54628;BME280;40525;55.926;21.066;2022-07-06T12:50:08;101567.18;;;24.15;43.34
54628;BME280;40525;55.926;21.066;2022-07-06T12:52:36;101561.82;;;24.00;44.05
54628;BME280;40525;55.926;21.066;2022-07-06T12:55:06;101558.50;;;24.72;43.61
54628;BME280;40525;55.926;21.066;2022-07-06T13:00:14;101554.49;;;24.96;43.66
54628;BME280;40525;55.926;21.066;2022-07-06T13:02:45;101556.78;;;25.57;42.68
54628;BME280;40525;55.926;21.066;2022-07-06T13:05:14;101551.33;;;25.77;42.90